Time;durP1;ratioP1;P1;durP2;ratioP2;P2;SDS_P1;SDS_P2;PMS_P1;PMS_P2;Temp;Humidity;BMP_temperature;BMP_pressure;BME280_temperature;BME280_humidity;BME280_pressure;Samples;Min_cycle;Max_cycle;Signal;HPM_P1;HPM_P2
2022/01/21 00:00:29;;;;;;;2.47;1.17;;;20.90;51.40;;;;;;5099639;28;20040;-70
2022/01/21 00:02:56;;;;;;;1.98;1.38;;;21.00;52.60;;;;;;5099429;28;20036;-70
2022/01/21 00:05:23;;;;;;;4.90;1.20;;;21.10;52.50;;;;;;5082345;28;20064;-69
2022/01/21 00:07:50;;;;;;;2.83;1.75;;;21.10;52.50;;;;;;5099480;28;20040;-69
2022/01/21 00:10:16;;;;;;;2.88;1.27;;;21.20;52.00;;;;;;5099574;28;20040;-69
2022/01/21 00:12:43;;;;;;;1.92;1.30;;;21.30;52.30;;;;;;5099235;28;20048;-69
2022/01/21 00:15:10;;;;;;;2.35;1.50;;;21.40;52.20;;;;;;5099472;28;20078;-69
2022/01/21 00:17:37;;;;;;;2.50;1.70;;;21.40;51.80;;;;;;5098966;28;20033;-69
2022/01/21 00:31:07;;;;;;;1.88;1.60;;;21.40;51.70;;;;;;5081346;28;20051;-69
2022/01/21 00:33:34;;;;;;;2.67;1.98;;;21.30;52.00;;;;;;5098823;28;20113;-69
2022/01/21 00:36:01;;;;;;;2.85;2.17;;;21.30;52.20;;;;;;5099311;28;20044;-69
2022/01/21 00:38:29;;;;;;;2.63;1.73;;;21.30;52.10;;;;;;5098950;28;20126;-69
2022/01/21 00:40:59;;;;;;;2.13;1.80;;;21.20;52.10;;;;;;5098761;28;20045;-69
2022/01/21 00:43:33;;;;;;;2.10;1.83;;;21.10;52.30;;;;;;5098728;28;20029;-69
2022/01/21 00:46:01;;;;;;;2.35;2.10;;;21.10;52.20;;;;;;5098690;28;20040;-69
2022/01/21 00:48:27;;;;;;;2.58;2.22;;;21.10;52.30;;;;;;5098943;28;20068;-70
2022/01/21 00:50:53;;;;;;;1.75;1.65;;;21.10;52.40;;;;;;5081530;28;20083;-69
2022/01/21 00:53:21;;;;;;;3.35;2.08;;;21.00;52.40;;;;;;5079876;28;20040;-69
2022/01/21 00:55:47;;;;;;;3.50;1.90;;;21.00;52.30;;;;;;5098856;28;20040;-70
2022/01/21 00:58:13;;;;;;;2.13;1.50;;;21.10;52.40;;;;;;5098654;28;20078;-69
2022/01/21 01:00:40;;;;;;;3.58;2.13;;;21.00;52.20;;;;;;5081637;28;20055;-69
2022/01/21 01:03:06;;;;;;;3.50;2.15;;;21.00;52.30;;;;;;5098310;28;20109;-69
2022/01/21 01:05:32;;;;;;;2.85;1.95;;;21.00;52.10;;;;;;5098357;28;20041;-69
2022/01/21 01:07:59;;;;;;;4.22;2.05;;;20.90;52.00;;;;;;5098335;28;20044;-69
2022/01/21 01:10:45;;;;;;;2.70;1.83;;;20.90;52.10;;;;;;5098732;28;20032;-69
2022/01/21 01:21:25;;;;;;;3.10;1.90;;;21.00;51.60;;;;;;5097525;28;20048;-69
2022/01/21 01:29:24;;;;;;;2.80;1.73;;;20.90;51.70;;;;;;5098103;28;20044;-69
2022/01/21 01:31:51;;;;;;;1.95;1.73;;;20.90;51.80;;;;;;5097841;28;20045;-69
2022/01/21 01:34:19;;;;;;;2.30;1.70;;;20.80;51.80;;;;;;5097703;28;20096;-69
2022/01/21 01:36:47;;;;;;;6.00;2.28;;;20.80;51.70;;;;;;5097915;28;20044;-69
2022/01/21 01:50:34;;;;;;;5.53;2.10;;;20.70;51.70;;;;;;5096999;28;20045;-69
2022/01/21 01:53:00;;;;;;;2.50;2.00;;;20.70;51.60;;;;;;5096943;28;20131;-69
2022/01/21 01:55:27;;;;;;;3.25;2.30;;;20.80;51.60;;;;;;5097355;28;20041;-69
2022/01/21 01:57:53;;;;;;;2.95;1.98;;;20.80;51.40;;;;;;5097607;28;20095;-69
2022/01/21 02:00:19;;;;;;;4.05;2.22;;;20.80;51.40;;;;;;5096885;28;20054;-69
2022/01/21 02:02:46;;;;;;;3.80;2.20;;;20.80;51.20;;;;;;5097179;28;20064;-70
2022/01/21 02:05:12;;;;;;;3.92;2.47;;;20.80;51.20;;;;;;5096447;28;20033;-69
2022/01/21 02:07:41;;;;;;;3.42;2.05;;;20.70;51.30;;;;;;5096763;28;20053;-69
2022/01/21 02:10:08;;;;;;;2.67;2.22;;;20.80;51.30;;;;;;5096644;28;20108;-69
2022/01/21 02:12:36;;;;;;;3.80;2.42;;;20.80;51.30;;;;;;5097190;28;20045;-69
2022/01/21 02:15:02;;;;;;;3.45;2.00;;;20.70;51.30;;;;;;5096522;28;20047;-70
2022/01/21 02:22:45;;;;;;;4.78;2.40;;;20.60;51.20;;;;;;5096890;28;20032;-70
2022/01/21 02:25:19;;;;;;;3.08;1.88;;;20.60;51.20;;;;;;5096969;28;20066;-69
2022/01/21 02:27:58;;;;;;;2.50;2.15;;;20.40;51.20;;;;;;5113521;28;20091;-69
2022/01/21 02:30:26;;;;;;;5.65;2.15;;;20.60;51.20;;;;;;5096327;28;20040;-69
2022/01/21 02:32:58;;;;;;;3.03;1.88;;;20.50;51.20;;;;;;5096900;28;20067;-69
2022/01/21 02:35:25;;;;;;;4.28;2.00;;;20.50;51.20;;;;;;5096910;28;20059;-69
2022/01/21 02:37:51;;;;;;;3.88;2.70;;;20.60;51.10;;;;;;5096183;28;20041;-69
2022/01/21 02:40:19;;;;;;;3.13;2.58;;;20.60;51.10;;;;;;5096235;28;20083;-69
2022/01/21 02:42:45;;;;;;;4.55;2.38;;;20.50;51.00;;;;;;5096189;28;20028;-69
2022/01/21 02:45:16;;;;;;;2.70;2.38;;;20.50;51.00;;;;;;5096615;28;20040;-68
2022/01/21 02:47:44;;;;;;;6.07;2.60;;;20.50;50.90;;;;;;5096284;28;20059;-69
2022/01/21 02:50:11;;;;;;;2.85;2.45;;;20.40;50.80;;;;;;5096740;28;20045;-69
2022/01/21 02:52:52;;;;;;;4.65;2.33;;;20.50;50.80;;;;;;5095870;28;20032;-69
2022/01/21 02:55:19;;;;;;;4.83;2.70;;;20.50;50.80;;;;;;5094836;28;20048;-69
2022/01/21 02:57:45;;;;;;;5.20;3.88;;;20.40;50.60;;;;;;5095801;28;20284;-70
2022/01/21 03:00:12;;;;;;;5.30;3.25;;;20.40;50.70;;;;;;5096507;28;20071;-70
2022/01/21 03:02:38;;;;;;;3.45;2.80;;;20.30;50.80;;;;;;5095911;28;20036;-69
2022/01/21 03:05:11;;;;;;;3.13;2.30;;;20.30;50.70;;;;;;5095626;28;20056;-69
2022/01/21 03:07:37;;;;;;;3.42;2.25;;;20.30;50.80;;;;;;5095909;28;20071;-69
2022/01/21 03:10:04;;;;;;;5.80;2.72;;;20.30;50.80;;;;;;5095846;28;20051;-69
2022/01/21 03:12:31;;;;;;;5.10;3.35;;;20.20;50.70;;;;;;5095662;28;20045;-69
2022/01/21 03:14:57;;;;;;;3.45;2.40;;;20.20;50.70;;;;;;5095349;28;20036;-70
2022/01/21 03:17:23;;;;;;;3.67;2.70;;;20.20;50.70;;;;;;5091446;28;20033;-69
2022/01/21 03:19:49;;;;;;;3.67;2.60;;;20.30;50.70;;;;;;5079665;28;20033;-69
2022/01/21 03:22:15;;;;;;;6.63;3.13;;;20.30;50.70;;;;;;5079856;28;20044;-69
2022/01/21 03:24:41;;;;;;;5.22;3.20;;;20.30;50.70;;;;;;5080282;28;20063;-69
2022/01/21 03:27:07;;;;;;;5.10;2.78;;;20.40;50.60;;;;;;5079660;28;20029;-69
2022/01/21 03:29:34;;;;;;;5.13;2.58;;;20.20;50.60;;;;;;5079641;28;20045;-69
2022/01/21 03:32:01;;;;;;;5.00;3.25;;;20.30;50.60;;;;;;5079443;28;20056;-69
2022/01/21 03:34:28;;;;;;;4.63;3.13;;;20.30;50.50;;;;;;5079150;28;20025;-69
2022/01/21 03:36:55;;;;;;;7.28;2.83;;;20.30;50.50;;;;;;5079484;28;20021;-69
2022/01/21 03:39:21;;;;;;;5.05;2.75;;;20.30;50.50;;;;;;5096147;28;20037;-69
2022/01/21 03:41:47;;;;;;;7.70;3.42;;;20.30;50.40;;;;;;5079991;28;20049;-69
2022/01/21 03:44:17;;;;;;;3.88;2.90;;;20.30;50.30;;;;;;5079369;28;20037;-69
2022/01/21 03:46:43;;;;;;;5.82;2.65;;;20.20;50.20;;;;;;5079101;28;20113;-69
2022/01/21 03:49:09;;;;;;;5.55;2.97;;;20.20;50.20;;;;;;5079421;28;20056;-70
2022/01/21 03:51:37;;;;;;;5.28;2.92;;;20.30;50.20;;;;;;5079243;28;20041;-69
2022/01/21 03:54:04;;;;;;;4.57;3.05;;;20.30;50.30;;;;;;5078502;28;20063;-69
2022/01/21 03:56:32;;;;;;;8.90;4.22;;;20.20;50.30;;;;;;5078926;28;20037;-69
2022/01/21 03:58:59;;;;;;;9.68;4.35;;;20.20;50.40;;;;;;5079133;28;20037;-69
2022/01/21 04:01:28;;;;;;;8.55;3.83;;;20.00;50.40;;;;;;5078886;28;20041;-69
2022/01/21 04:03:55;;;;;;;6.45;3.28;;;20.00;50.40;;;;;;5079682;28;20041;-68
2022/01/21 04:06:21;;;;;;;10.45;3.75;;;20.00;50.40;;;;;;5078819;28;20096;-69
2022/01/21 04:08:47;;;;;;;8.15;3.78;;;20.00;50.40;;;;;;5078861;28;20056;-69
2022/01/21 04:11:14;;;;;;;8.85;3.17;;;20.00;50.40;;;;;;5078974;28;20132;-69
2022/01/21 04:13:46;;;;;;;6.88;3.17;;;20.00;50.40;;;;;;5078844;28;20037;-69
2022/01/21 04:16:16;;;;;;;3.90;3.00;;;20.00;50.20;;;;;;5078575;28;20041;-69
2022/01/21 04:18:44;;;;;;;4.65;3.13;;;20.00;50.10;;;;;;5078746;28;20044;-69
2022/01/21 04:21:12;;;;;;;5.43;3.45;;;20.10;50.10;;;;;;5078651;28;20092;-69
2022/01/21 04:23:39;;;;;;;8.77;3.88;;;20.00;49.90;;;;;;5079176;28;20041;-68
2022/01/21 04:26:07;;;;;;;5.63;3.60;;;20.10;50.00;;;;;;5078343;28;20041;-69
2022/01/21 04:28:34;;;;;;;4.15;3.28;;;20.00;49.80;;;;;;5078620;28;20100;-68
2022/01/21 04:31:02;;;;;;;6.90;3.22;;;20.10;49.90;;;;;;5078438;28;20098;-69
2022/01/21 04:33:35;;;;;;;5.97;3.17;;;20.00;49.70;;;;;;5078170;28;20072;-69
2022/01/21 04:36:04;;;;;;;7.15;3.10;;;20.00;49.80;;;;;;5078038;28;20056;-70
2022/01/21 04:38:31;;;;;;;4.72;3.38;;;20.10;49.70;;;;;;5078392;28;20044;-69
2022/01/21 04:41:16;;;;;;;3.85;3.10;;;20.10;49.70;;;;;;5078019;28;20672;-69
2022/01/21 04:49:31;;;;;;;3.92;2.95;;;19.90;50.10;;;;;;5057354;28;20194;-69
2022/01/21 04:52:03;;;;;;;8.25;3.55;;;20.00;49.90;;;;;;5064679;28;20100;-69
2022/01/21 04:54:50;;;;;;;6.05;3.55;;;20.00;50.00;;;;;;5098501;28;20040;-69
2022/01/21 04:57:17;;;;;;;7.65;5.10;;;19.90;50.40;;;;;;5081158;28;20041;-70
2022/01/21 04:59:44;;;;;;;10.13;6.38;;;19.80;50.30;;;;;;5081276;28;20040;-69
2022/01/21 05:02:11;;;;;;;7.32;5.00;;;19.90;50.50;;;;;;5080602;28;20095;-69
2022/01/21 05:04:39;;;;;;;16.92;8.23;;;19.80;50.50;;;;;;5079748;28;20037;-69
2022/01/21 05:07:08;;;;;;;16.30;7.32;;;19.80;50.60;;;;;;5097891;28;20047;-68
2022/01/21 05:09:35;;;;;;;18.05;7.15;;;19.80;50.30;;;;;;5097881;28;20040;-73
2022/01/21 05:12:09;;;;;;;12.45;5.60;;;19.70;51.10;;;;;;5096835;28;20044;-73
2022/01/21 05:17:11;;;;;;;18.17;6.77;;;20.60;50.50;;;;;;5080198;28;20041;-73
2022/01/21 05:19:38;;;;;;;6.88;4.75;;;21.00;52.50;;;;;;5080190;28;20041;-73
2022/01/21 05:22:31;;;;;;;10.52;4.35;;;21.20;48.60;;;;;;5080287;28;20029;-75
2022/01/21 05:24:57;;;;;;;8.65;4.80;;;21.30;49.10;;;;;;5080002;28;20061;-78
2022/01/21 05:27:25;;;;;;;8.35;4.72;;;21.50;44.30;;;;;;5096542;28;20028;-76
2022/01/21 05:29:52;;;;;;;8.25;4.22;;;21.60;41.80;;;;;;5079515;28;20036;-77
2022/01/21 05:32:41;;;;;;;5.18;3.25;;;21.50;40.20;;;;;;5077753;28;20040;-71
2022/01/21 05:35:30;;;;;;;5.22;3.65;;;21.50;38.70;;;;;;5094333;28;20040;-72
2022/01/21 05:38:18;;;;;;;5.35;3.58;;;21.30;38.90;;;;;;5096117;28;20048;-70
2022/01/21 05:41:04;;;;;;;6.53;3.60;;;21.10;39.90;;;;;;5096964;28;20057;-70
2022/01/21 05:44:00;;;;;;;3.85;2.85;;;20.90;40.90;;;;;;5096824;28;20035;-70
2022/01/21 05:49:30;;;;;;;2.90;2.63;;;20.70;43.20;;;;;;5096991;28;20068;-70
2022/01/21 05:52:32;;;;;;;5.03;3.10;;;20.70;43.90;;;;;;5081217;28;20060;-70
2022/01/21 05:55:19;;;;;;;4.03;3.00;;;20.60;44.60;;;;;;5079481;28;20037;-69
2022/01/21 05:58:05;;;;;;;4.93;3.05;;;20.40;39.20;;;;;;5096494;28;20032;-69
2022/01/21 06:00:31;;;;;;;3.58;2.53;;;20.60;45.70;;;;;;5079196;28;20040;-70
2022/01/21 06:02:58;;;;;;;4.40;3.17;;;20.90;42.90;;;;;;5096607;28;20067;-70
2022/01/21 06:05:24;;;;;;;3.85;2.45;;;21.00;37.80;;;;;;5084286;28;20064;-72
2022/01/21 06:07:50;;;;;;;3.25;2.65;;;21.00;35.50;;;;;;5075929;28;20033;-71
2022/01/21 06:10:16;;;;;;;3.00;2.03;;;21.00;35.90;;;;;;5060526;28;20041;-72
2022/01/21 06:12:42;;;;;;;3.47;2.30;;;20.90;34.60;;;;;;5076490;28;20037;-70
2022/01/21 06:15:09;;;;;;;3.45;2.13;;;20.90;34.40;;;;;;5075405;28;20051;-71
2022/01/21 06:17:35;;;;;;;5.53;2.55;;;20.90;35.20;;;;;;5075572;28;20040;-71
2022/01/21 06:20:02;;;;;;;4.60;2.50;;;21.00;35.40;;;;;;5075999;28;20037;-71
2022/01/21 06:22:28;;;;;;;6.20;2.55;;;20.90;35.30;;;;;;5075668;28;20091;-70
2022/01/21 06:24:56;;;;;;;4.78;3.00;;;20.80;37.10;;;;;;5074662;28;20108;-71
2022/01/21 06:27:26;;;;;;;5.10;2.83;;;20.80;36.30;;;;;;5075854;28;20097;-70
2022/01/21 06:29:53;;;;;;;7.75;3.55;;;20.90;37.30;;;;;;5075717;28;20057;-70
2022/01/21 06:32:19;;;;;;;6.60;3.83;;;20.80;35.60;;;;;;5094996;28;20086;-71
2022/01/21 06:34:46;;;;;;;9.25;3.80;;;20.80;35.60;;;;;;5078265;28;20063;-71
2022/01/21 06:37:12;;;;;;;6.10;3.17;;;20.80;37.20;;;;;;5095171;28;20037;-71
2022/01/21 06:39:38;;;;;;;9.85;6.70;;;20.90;36.60;;;;;;5095330;28;20040;-71
2022/01/21 06:42:05;;;;;;;11.20;7.03;;;21.00;51.90;;;;;;5095658;28;20096;-73
2022/01/21 06:44:31;;;;;;;12.20;7.22;;;21.20;51.70;;;;;;5095626;28;20044;-72
2022/01/21 06:46:57;;;;;;;9.70;6.60;;;21.10;52.30;;;;;;5078078;28;20035;-71
2022/01/21 06:49:23;;;;;;;7.53;5.97;;;20.90;53.10;;;;;;5095117;28;20067;-72
2022/01/21 06:51:49;;;;;;;15.63;7.90;;;20.90;53.10;;;;;;5077642;28;20036;-72
2022/01/21 06:54:16;;;;;;;11.20;7.70;;;20.80;53.60;;;;;;5095260;28;20044;-73
2022/01/21 06:56:42;;;;;;;11.98;8.27;;;20.70;55.60;;;;;;5078126;28;20036;-70
2022/01/21 06:59:08;;;;;;;12.15;7.55;;;20.70;56.30;;;;;;5078168;28;20045;-72
2022/01/21 07:01:34;;;;;;;12.40;8.13;;;20.60;56.10;;;;;;5095295;28;20044;-71
2022/01/21 07:04:02;;;;;;;12.07;6.90;;;20.60;56.00;;;;;;5081009;28;20033;-70
2022/01/21 07:06:28;;;;;;;10.73;6.47;;;20.60;56.40;;;;;;5095152;28;20036;-72
2022/01/21 07:08:55;;;;;;;10.30;5.13;;;20.50;56.70;;;;;;5095075;28;20062;-74
2022/01/21 07:11:21;;;;;;;7.25;4.32;;;20.60;57.30;;;;;;5094156;28;20045;-72
2022/01/21 07:13:47;;;;;;;6.63;3.88;;;20.50;57.50;;;;;;5095538;28;20046;-75
2022/01/21 07:16:14;;;;;;;6.60;4.10;;;20.50;58.20;;;;;;5095897;28;20036;-72
2022/01/21 07:18:40;;;;;;;10.13;4.03;;;20.50;58.10;;;;;;5095526;28;20044;-71
2022/01/21 07:21:06;;;;;;;7.07;4.47;;;20.50;58.50;;;;;;5095574;28;20053;-72
2022/01/21 07:23:32;;;;;;;7.90;3.90;;;20.40;59.60;;;;;;5095633;28;20024;-73
2022/01/21 07:25:58;;;;;;;5.20;3.67;;;20.50;59.70;;;;;;5078097;28;20062;-72
2022/01/21 07:28:24;;;;;;;5.97;4.25;;;20.60;60.30;;;;;;5095451;28;20100;-72
2022/01/21 07:30:51;;;;;;;7.32;4.75;;;20.40;59.80;;;;;;5095580;28;20044;-71
2022/01/21 07:33:18;;;;;;;5.97;3.53;;;20.40;59.20;;;;;;5094354;28;20052;-74
2022/01/21 07:35:44;;;;;;;8.60;4.55;;;20.50;60.60;;;;;;5095246;28;20036;-73
2022/01/21 07:38:12;;;;;;;6.50;4.25;;;20.50;60.00;;;;;;5095001;28;20040;-74
2022/01/21 07:40:38;;;;;;;7.65;4.57;;;20.50;60.40;;;;;;5094824;28;20063;-73
2022/01/21 07:43:08;;;;;;;9.50;4.22;;;20.50;59.70;;;;;;5095474;28;20054;-72
2022/01/21 07:45:35;;;;;;;10.27;5.50;;;20.50;61.10;;;;;;5095316;28;20114;-71
2022/01/21 07:48:01;;;;;;;6.53;4.28;;;20.50;60.80;;;;;;5095257;28;20029;-71
2022/01/21 07:50:28;;;;;;;8.43;5.25;;;20.40;60.30;;;;;;5095245;28;20068;-71
2022/01/21 07:52:54;;;;;;;7.20;4.55;;;20.40;60.60;;;;;;5095292;28;20041;-71
2022/01/21 07:55:20;;;;;;;9.20;5.13;;;20.40;60.10;;;;;;5095461;28;20067;-71
2022/01/21 07:57:47;;;;;;;9.00;5.10;;;20.40;60.00;;;;;;5095404;28;20036;-70
2022/01/21 08:00:13;;;;;;;9.18;4.82;;;20.60;60.40;;;;;;5095048;28;20052;-70
2022/01/21 08:02:40;;;;;;;10.93;5.03;;;20.50;59.70;;;;;;5097848;28;20040;-71
2022/01/21 08:05:07;;;;;;;7.75;4.10;;;20.50;59.60;;;;;;5098582;28;20036;-70
2022/01/21 08:07:33;;;;;;;6.30;4.00;;;20.70;59.70;;;;;;5081217;28;20036;-71
2022/01/21 08:09:59;;;;;;;7.45;4.28;;;20.70;59.30;;;;;;5098993;28;20098;-70
2022/01/21 08:12:25;;;;;;;8.98;4.47;;;20.60;59.10;;;;;;5081553;28;20032;-70
2022/01/21 08:14:52;;;;;;;7.13;4.20;;;20.70;59.20;;;;;;5097854;28;20044;-69
2022/01/21 08:17:18;;;;;;;10.68;4.65;;;20.70;59.10;;;;;;5098070;28;20040;-69
2022/01/21 08:19:44;;;;;;;7.80;4.53;;;20.80;58.60;;;;;;5129105;28;20052;-69
2022/01/21 08:22:10;;;;;;;11.80;4.43;;;20.90;59.10;;;;;;5119029;28;20040;-69
2022/01/21 08:24:37;;;;;;;6.10;3.42;;;20.80;61.00;;;;;;5118257;28;20047;-69
2022/01/21 08:27:04;;;;;;;9.40;3.88;;;20.90;60.30;;;;;;5118547;28;20110;-70
2022/01/21 08:29:30;;;;;;;7.68;3.83;;;21.30;58.90;;;;;;5118319;28;20099;-69
2022/01/21 08:31:56;;;;;;;8.98;4.13;;;21.10;58.80;;;;;;5118522;28;20054;-69
2022/01/21 08:34:23;;;;;;;8.20;4.40;;;21.30;58.50;;;;;;5118797;28;20040;-69
2022/01/21 08:36:49;;;;;;;7.32;3.80;;;21.30;59.00;;;;;;5118803;28;20121;-69
2022/01/21 08:39:16;;;;;;;7.70;3.90;;;21.30;58.60;;;;;;5117985;28;20042;-68
2022/01/21 08:41:42;;;;;;;7.25;4.00;;;21.30;58.20;;;;;;5100054;28;20043;-69
2022/01/21 08:44:08;;;;;;;5.95;4.22;;;21.30;58.00;;;;;;5118392;28;20050;-70
2022/01/21 08:46:35;;;;;;;8.32;2.92;;;21.30;57.80;;;;;;5118478;28;20028;-69
2022/01/21 08:49:07;;;;;;;8.15;4.05;;;21.30;58.30;;;;;;5117343;28;20036;-70
2022/01/21 08:51:39;;;;;;;9.05;3.97;;;21.50;57.90;;;;;;5118506;28;20039;-70
2022/01/21 08:54:06;;;;;;;6.18;3.13;;;21.60;57.10;;;;;;5118144;28;20048;-70
2022/01/21 08:56:32;;;;;;;7.70;4.28;;;21.70;57.10;;;;;;5118350;28;20044;-69
2022/01/21 08:58:58;;;;;;;3.97;2.30;;;21.50;56.90;;;;;;5117972;28;20067;-69
2022/01/21 09:01:24;;;;;;;6.40;3.13;;;21.70;57.00;;;;;;5117928;28;20035;-70
2022/01/21 09:03:51;;;;;;;3.38;1.58;;;21.70;56.80;;;;;;5070695;28;20044;-73
2022/01/21 09:06:19;;;;;;;8.25;2.72;;;21.90;57.20;;;;;;5096683;28;20040;-70
2022/01/21 09:08:46;;;;;;;2.50;1.60;;;22.00;56.30;;;;;;5096043;28;20040;-69
2022/01/21 09:11:13;;;;;;;1.13;1.00;;;22.10;54.00;;;;;;5097203;28;20108;-69
2022/01/21 09:13:41;;;;;;;1.33;1.23;;;22.20;51.70;;;;;;5095788;28;20044;-69
2022/01/21 09:16:08;;;;;;;3.95;1.75;;;22.20;48.90;;;;;;5096162;28;20044;-69
2022/01/21 09:18:46;;;;;;;3.53;2.03;;;22.20;48.10;;;;;;5096802;28;20100;-70
2022/01/21 09:21:13;;;;;;;7.88;2.88;;;22.20;47.50;;;;;;5096324;28;20045;-69
2022/01/21 09:23:42;;;;;;;8.98;3.92;;;22.30;47.20;;;;;;5096035;28;20108;-69
2022/01/21 09:26:09;;;;;;;6.43;3.33;;;22.30;46.60;;;;;;5095511;28;20033;-68
2022/01/21 09:28:35;;;;;;;7.07;4.38;;;22.20;44.50;;;;;;5095908;28;20047;-69
2022/01/21 09:31:01;;;;;;;8.27;4.10;;;22.30;44.00;;;;;;5096501;28;20040;-69
2022/01/21 09:33:28;;;;;;;6.45;3.70;;;22.10;43.60;;;;;;5096979;28;20052;-71
2022/01/21 09:35:54;;;;;;;6.10;3.17;;;22.00;43.70;;;;;;5096327;28;20096;-70
2022/01/21 09:38:20;;;;;;;6.00;3.90;;;22.20;46.00;;;;;;5096858;28;20059;-68
2022/01/21 09:40:49;;;;;;;7.55;3.20;;;22.40;47.90;;;;;;5096585;28;20474;-68
2022/01/21 09:43:17;;;;;;;3.97;2.72;;;22.30;35.50;;;;;;5096284;28;20044;-68
2022/01/21 09:45:51;;;;;;;6.28;2.85;;;22.20;35.00;;;;;;5096683;28;20047;-69
2022/01/21 09:48:25;;;;;;;6.32;2.90;;;22.30;34.30;;;;;;5096795;28;20037;-70
2022/01/21 09:50:53;;;;;;;5.80;2.80;;;22.20;32.60;;;;;;5096833;28;20190;-68
2022/01/21 09:53:29;;;;;;;5.10;3.05;;;22.10;32.40;;;;;;5096255;28;20036;-69
2022/01/21 09:55:58;;;;;;;3.22;2.22;;;22.20;31.40;;;;;;5096504;28;20040;-69
2022/01/21 09:58:29;;;;;;;4.93;2.70;;;22.10;31.20;;;;;;5097008;28;20075;-69
2022/01/21 10:00:57;;;;;;;3.63;2.40;;;22.10;42.30;;;;;;5095706;28;20055;-69
2022/01/21 10:03:25;;;;;;;4.53;2.95;;;22.30;44.70;;;;;;5095611;28;20043;-70
2022/01/21 10:05:53;;;;;;;6.70;2.05;;;22.40;42.70;;;;;;5096605;28;20067;-69
2022/01/21 10:08:22;;;;;;;5.60;2.45;;;22.30;45.90;;;;;;5079331;28;20045;-68
2022/01/21 10:10:48;;;;;;;4.53;2.72;;;22.30;46.10;;;;;;5096357;28;20040;-69
2022/01/21 10:13:17;;;;;;;5.07;2.35;;;22.40;46.30;;;;;;5095423;28;20041;-69
2022/01/21 10:15:43;;;;;;;4.90;2.55;;;22.40;46.00;;;;;;5095924;28;20041;-68
2022/01/21 10:18:15;;;;;;;4.25;2.13;;;22.40;46.00;;;;;;5096430;28;20229;-69
2022/01/21 10:21:06;;;;;;;5.13;2.38;;;22.40;47.80;;;;;;5096155;28;20055;-69
2022/01/21 10:23:38;;;;;;;3.83;2.67;;;22.30;47.50;;;;;;5096077;28;20063;-68
2022/01/21 10:26:09;;;;;;;7.05;2.95;;;22.30;47.50;;;;;;5095196;28;20064;-69
2022/01/21 10:28:37;;;;;;;5.30;2.28;;;22.40;47.80;;;;;;5096189;28;20047;-69
2022/01/21 10:31:11;;;;;;;11.77;3.50;;;22.30;49.70;;;;;;5095370;28;20040;-69
2022/01/21 10:33:44;;;;;;;4.82;2.20;;;22.40;47.40;;;;;;5090683;28;20886;-70
2022/01/21 10:36:24;;;;;;;5.13;2.40;;;22.70;43.80;;;;;;5075523;28;20048;-70
2022/01/21 10:38:54;;;;;;;2.33;1.50;;;22.70;53.10;;;;;;5076041;28;20078;-69
2022/01/21 10:41:21;;;;;;;4.22;2.00;;;22.70;52.30;;;;;;5075680;28;20044;-70
2022/01/21 10:44:12;;;;;;;2.33;1.42;;;22.90;47.40;;;;;;5076093;28;20040;-70
2022/01/21 10:46:41;;;;;;;2.80;1.55;;;22.90;42.50;;;;;;5088432;28;20032;-70
2022/01/21 10:49:10;;;;;;;3.10;1.85;;;23.00;42.90;;;;;;5095847;28;20051;-70
2022/01/21 10:51:38;;;;;;;2.25;1.67;;;23.10;34.50;;;;;;5095749;28;20040;-70
2022/01/21 10:54:20;;;;;;;2.92;2.08;;;22.80;35.70;;;;;;5095881;28;20043;-70
2022/01/21 10:57:09;;;;;;;2.50;1.52;;;22.80;46.10;;;;;;5095915;28;20809;-70
2022/01/21 10:59:55;;;;;;;6.15;2.40;;;23.00;47.30;;;;;;5095300;28;20037;-69
2022/01/21 11:02:29;;;;;;;3.40;2.08;;;23.10;47.80;;;;;;5094857;28;20528;-69
2022/01/21 11:04:58;;;;;;;3.20;1.60;;;23.00;48.00;;;;;;5095936;28;20078;-70
2022/01/21 11:10:06;;;;;;;4.38;2.22;;;23.00;48.40;;;;;;5035531;28;20045;-69
2022/01/21 11:12:35;;;;;;;3.78;1.48;;;22.90;48.60;;;;;;5037679;28;20033;-70
2022/01/21 11:15:05;;;;;;;5.50;2.13;;;23.00;48.90;;;;;;5055202;28;20038;-69
2022/01/21 11:17:32;;;;;;;3.83;1.70;;;22.90;48.40;;;;;;5055615;28;20045;-68
2022/01/21 11:20:16;;;;;;;4.03;2.17;;;23.00;48.90;;;;;;5054881;28;20045;-68
2022/01/21 11:22:59;;;;;;;2.78;1.95;;;22.90;49.00;;;;;;5054780;28;20068;-68
2022/01/21 11:25:48;;;;;;;5.00;1.95;;;23.00;49.40;;;;;;5055682;28;20041;-70
2022/01/21 11:28:20;;;;;;;3.40;1.73;;;23.10;49.50;;;;;;5055508;28;20040;-69
2022/01/21 11:30:47;;;;;;;5.25;1.60;;;23.00;49.60;;;;;;5055027;28;20049;-68
2022/01/21 11:33:14;;;;;;;2.75;1.63;;;23.00;49.60;;;;;;5055203;28;20056;-69
2022/01/21 11:35:41;;;;;;;7.63;2.42;;;22.80;48.90;;;;;;5054533;28;20095;-70
2022/01/21 11:38:12;;;;;;;4.85;2.40;;;22.90;46.60;;;;;;5041722;28;20048;-70
2022/01/21 11:40:40;;;;;;;4.63;1.70;;;22.80;48.70;;;;;;5058327;28;20041;-71
2022/01/21 11:43:09;;;;;;;5.93;2.05;;;22.70;49.30;;;;;;5058816;28;20041;-71
2022/01/21 11:50:41;;;;;;;3.85;1.88;;;22.40;48.80;;;;;;5059124;28;20052;-69
2022/01/21 11:53:07;;;;;;;4.15;1.60;;;22.50;49.60;;;;;;5058974;28;20032;-70
2022/01/21 11:55:41;;;;;;;3.45;2.15;;;22.40;47.90;;;;;;5058744;28;20049;-70
2022/01/21 11:58:22;;;;;;;7.18;2.00;;;22.20;49.60;;;;;;5058658;28;20037;-70
2022/01/21 12:00:51;;;;;;;3.13;1.52;;;22.20;50.70;;;;;;5058431;28;20100;-71
2022/01/21 12:03:21;;;;;;;4.25;1.75;;;22.30;53.30;;;;;;5041822;28;20040;-71
2022/01/21 12:05:47;;;;;;;6.78;2.17;;;22.30;52.90;;;;;;5058845;28;20033;-71
2022/01/21 12:08:14;;;;;;;4.47;1.58;;;22.40;52.60;;;;;;5058628;28;20101;-71
2022/01/21 12:10:45;;;;;;;2.67;1.63;;;22.30;52.20;;;;;;5058238;28;20212;-71
2022/01/21 12:13:25;;;;;;;5.75;1.67;;;22.40;51.70;;;;;;5058347;28;20037;-71
2022/01/21 12:16:08;;;;;;;2.63;1.80;;;22.40;51.70;;;;;;5058589;28;20048;-71
2022/01/21 12:19:06;;;;;;;6.57;2.25;;;22.50;51.30;;;;;;5058303;28;20045;-71
2022/01/21 12:21:41;;;;;;;2.72;0.90;;;22.50;51.20;;;;;;5057698;28;20080;-71
2022/01/21 12:24:09;;;;;;;4.40;1.60;;;22.60;51.00;;;;;;5058709;28;20045;-72
2022/01/21 12:26:53;;;;;;;4.72;1.50;;;22.60;50.80;;;;;;5058280;28;20041;-72
2022/01/21 12:29:22;;;;;;;3.40;1.77;;;22.60;50.80;;;;;;5058412;28;20061;-70
2022/01/21 12:31:54;;;;;;;4.47;2.17;;;22.60;50.80;;;;;;5058309;28;20056;-71
2022/01/21 12:34:20;;;;;;;1.27;0.83;;;22.60;50.30;;;;;;5057731;28;20079;-71
2022/01/21 12:36:53;;;;;;;2.72;1.48;;;22.50;50.30;;;;;;5058242;28;20077;-70
2022/01/21 12:39:55;;;;;;;3.03;1.35;;;22.60;50.10;;;;;;5056912;28;20045;-70
2022/01/21 12:42:21;;;;;;;4.00;2.00;;;22.60;50.00;;;;;;5016776;28;20116;-69
2022/01/21 12:44:56;;;;;;;2.08;0.75;;;22.60;50.00;;;;;;5048885;28;20045;-69
2022/01/21 12:47:40;;;;;;;6.88;2.17;;;22.60;49.70;;;;;;5057302;28;20044;-70
2022/01/21 12:50:31;;;;;;;5.30;2.63;;;22.50;49.50;;;;;;5057314;28;20105;-70
2022/01/21 12:53:26;;;;;;;0.90;0.82;;;22.50;49.50;;;;;;5057063;28;20053;-69
2022/01/21 12:56:03;;;;;;;;;;;22.50;49.40;;;;;;5058232;28;20063;-69
2022/01/21 12:58:38;;;;;;;7.45;2.05;;;22.60;49.40;;;;;;5057528;28;19905;-69
2022/01/21 13:01:10;;;;;;;3.33;1.35;;;22.60;48.60;;;;;;5056014;28;20037;-69
2022/01/21 13:03:42;;;;;;;2.10;1.45;;;22.60;47.20;;;;;;5057948;28;20047;-69
2022/01/21 13:06:20;;;;;;;2.20;1.53;;;22.40;49.60;;;;;;5057747;28;20034;-69
2022/01/21 13:08:52;;;;;;;3.95;1.45;;;22.50;49.30;;;;;;5057536;28;20539;-68
2022/01/21 13:11:24;;;;;;;4.47;2.28;;;22.50;49.90;;;;;;5057426;28;20048;-68
2022/01/21 13:17:11;;;;;;;2.97;1.73;;;22.40;49.50;;;;;;5057668;28;20064;-69
2022/01/21 13:19:54;;;;;;;1.20;1.10;;;22.50;49.80;;;;;;5057584;28;20132;-69
2022/01/21 13:22:24;;;;;;;;;;;22.40;49.20;;;;;;5057432;28;20045;-69
2022/01/21 13:25:01;;;;;;;4.20;1.27;;;22.30;48.30;;;;;;5057608;28;19913;-69
2022/01/21 13:27:29;;;;;;;5.40;1.67;;;22.40;49.70;;;;;;5057549;28;20041;-68
2022/01/21 13:30:07;;;;;;;1.77;1.40;;;22.20;49.70;;;;;;5057140;28;20030;-68
2022/01/21 13:32:33;;;;;;;3.05;1.33;;;22.50;50.00;;;;;;5056702;28;20037;-68
2022/01/21 13:35:18;;;;;;;3.72;1.25;;;22.30;49.80;;;;;;5057066;28;20021;-68
2022/01/21 13:38:21;;;;;;;3.28;1.65;;;22.40;49.40;;;;;;5039886;28;20037;-68
2022/01/21 13:40:49;;;;;;;4.97;1.77;;;22.40;49.80;;;;;;5016093;28;20046;-69
2022/01/21 13:43:17;;;;;;;6.00;2.22;;;22.30;48.40;;;;;;5032314;28;20128;-69
2022/01/21 13:46:01;;;;;;;1.58;1.00;;;22.40;49.50;;;;;;5056996;28;20037;-69
2022/01/21 13:48:31;;;;;;;2.15;1.40;;;22.30;48.60;;;;;;5056735;28;20097;-70
2022/01/21 13:50:58;;;;;;;4.10;1.88;;;22.30;50.10;;;;;;5055438;28;20649;-69
2022/01/21 13:53:26;;;;;;;4.63;1.80;;;22.40;49.40;;;;;;5055749;28;20041;-69
2022/01/21 13:55:56;;;;;;;2.15;1.30;;;22.40;49.50;;;;;;5049416;28;20057;-69
2022/01/21 13:58:25;;;;;;;2.63;1.85;;;22.40;47.80;;;;;;5056773;28;20052;-69
2022/01/21 14:00:52;;;;;;;6.45;1.67;;;22.30;49.80;;;;;;5043257;28;20417;-68
2022/01/21 14:03:23;;;;;;;5.32;2.38;;;22.60;51.10;;;;;;5056239;28;20060;-69